createdAt,value
2019-06-08T00:00:02.257Z,13.95
2019-06-08T00:02:10.464Z,14.05
2019-06-08T00:04:16.867Z,14.20
2019-06-08T00:06:23.495Z,14.83
2019-06-08T00:08:29.906Z,14.75
2019-06-08T00:10:36.516Z,14.33
2019-06-08T00:12:42.936Z,14.78
2019-06-08T00:14:49.428Z,15.08
2019-06-08T00:16:55.888Z,14.38
2019-06-08T00:19:02.378Z,14.25
2019-06-08T00:21:08.794Z,14.95
2019-06-08T00:23:15.723Z,14.43
2019-06-08T00:25:22.559Z,14.35
2019-06-08T00:27:30.237Z,14.95
2019-06-08T00:29:36.709Z,14.20
2019-06-08T00:31:43.104Z,14.87
2019-06-08T00:33:49.530Z,15.63
2019-06-08T00:35:55.979Z,14.95
2019-06-08T00:38:02.479Z,15.40
2019-06-08T00:40:09.757Z,15.78
2019-06-08T00:42:17.078Z,15.05
2019-06-08T00:44:23.664Z,14.00
2019-06-08T00:46:30.163Z,14.65
2019-06-08T00:48:36.645Z,15.13
2019-06-08T00:50:43.202Z,15.43
2019-06-08T00:52:49.621Z,14.55
2019-06-08T00:54:56.095Z,15.88
2019-06-08T00:57:02.534Z,16.07
2019-06-08T00:59:08.963Z,15.65
2019-06-08T01:01:15.361Z,17.25
2019-06-08T01:03:21.987Z,17.40
2019-06-08T01:05:28.409Z,15.68
2019-06-08T01:07:34.950Z,16.35
2019-06-08T01:09:41.424Z,15.88
2019-06-08T01:11:47.836Z,15.83
2019-06-08T01:13:54.360Z,15.55
2019-06-08T01:16:00.755Z,16.17
2019-06-08T01:18:07.360Z,17.50
2019-06-08T01:20:14.204Z,18.02
2019-06-08T01:22:21.614Z,17.17
2019-06-08T01:24:28.222Z,18.00
2019-06-08T01:26:34.637Z,16.25
2019-06-08T01:28:41.131Z,17.37
2019-06-08T01:30:47.730Z,18.10
2019-06-08T01:32:54.225Z,15.78
2019-06-08T01:35:00.630Z,17.00
2019-06-08T01:37:07.200Z,17.70
2019-06-08T01:39:13.598Z,17.32
2019-06-08T01:41:21.339Z,17.50
2019-06-08T01:43:27.824Z,17.70
2019-06-08T01:45:34.309Z,18.50
2019-06-08T01:47:40.739Z,17.57
2019-06-08T01:49:47.209Z,18.52
2019-06-08T01:51:53.804Z,18.67
2019-06-08T01:54:00.292Z,18.25
2019-06-08T01:56:06.720Z,18.05
2019-06-08T01:58:13.288Z,17.92
2019-06-08T02:00:29.887Z,17.85
2019-06-08T02:04:36.460Z,16.07
2019-06-08T02:06:42.936Z,17.65
2019-06-08T02:08:51.235Z,18.95
2019-06-08T02:10:57.868Z,18.67
2019-06-08T02:13:08.282Z,18.12
2019-06-08T02:15:14.805Z,18.07
2019-06-08T02:17:21.190Z,18.52
2019-06-08T02:19:28.385Z,18.60
2019-06-08T02:21:35.006Z,19.10
2019-06-08T02:23:41.418Z,19.90
2019-06-08T02:25:47.968Z,18.57
2019-06-08T02:27:54.571Z,19.07
2019-06-08T02:30:00.966Z,19.52
2019-06-08T02:32:07.445Z,19.55
2019-06-08T02:34:13.868Z,19.07
2019-06-08T02:36:20.275Z,19.70
2019-06-08T02:38:27.585Z,20.48
2019-06-08T02:40:35.172Z,20.97
2019-06-08T02:42:42.521Z,20.72
2019-06-08T02:44:48.916Z,20.45
2019-06-08T02:46:55.458Z,18.65
2019-06-08T02:49:04.417Z,19.87
2019-06-08T02:51:10.507Z,19.80
2019-06-08T02:53:18.719Z,20.40
2019-06-08T02:55:28.702Z,19.20
2019-06-08T02:57:39.871Z,19.05
2019-06-08T02:59:49.992Z,19.90
2019-06-08T03:01:59.964Z,18.75
2019-06-08T03:04:06.797Z,18.67
2019-06-08T03:06:15.665Z,19.12
2019-06-08T03:08:22.782Z,18.57
2019-06-08T03:10:32.877Z,19.05
2019-06-08T03:12:42.508Z,19.55
2019-06-08T03:14:53.102Z,19.60
2019-06-08T03:16:59.634Z,19.15
2019-06-08T03:19:20.835Z,19.45
2019-06-08T03:21:14.491Z,18.62
2019-06-08T03:23:21.870Z,19.57
2019-06-08T03:25:28.292Z,19.12
2019-06-08T03:27:35.281Z,19.12
2019-06-08T03:29:43.961Z,18.82
2019-06-08T03:31:55.906Z,19.80
2019-06-08T03:33:58.734Z,18.17
2019-06-08T03:36:05.133Z,16.95
2019-06-08T03:38:11.655Z,18.67
2019-06-08T03:40:18.414Z,16.93
2019-06-08T03:42:24.846Z,18.35
2019-06-08T03:44:31.261Z,18.45
2019-06-08T03:46:38.837Z,18.05
2019-06-08T03:48:46.583Z,18.73
2019-06-08T03:50:53.107Z,18.02
2019-06-08T03:52:59.527Z,17.15
2019-06-08T03:55:07.740Z,18.42
2019-06-08T03:57:14.264Z,17.65
2019-06-08T03:59:20.763Z,16.62
2019-06-08T04:01:27.232Z,16.40
2019-06-08T04:03:33.725Z,16.20
2019-06-08T04:05:42.289Z,16.87
2019-06-08T04:07:50.469Z,16.57
2019-06-08T04:09:57.212Z,15.05
2019-06-08T04:12:03.810Z,17.45
2019-06-08T04:14:10.280Z,17.17
2019-06-08T04:16:16.725Z,17.20
2019-06-08T04:18:23.110Z,16.30
2019-06-08T04:20:29.503Z,17.35
2019-06-08T04:22:42.133Z,17.00
2019-06-08T04:24:50.429Z,16.23
2019-06-08T04:26:56.931Z,16.25
2019-06-08T04:29:03.344Z,16.15
2019-06-08T04:31:09.726Z,16.17
2019-06-08T04:33:17.881Z,17.57
2019-06-08T04:35:24.350Z,16.07
2019-06-08T04:37:30.737Z,15.72
2019-06-08T04:39:38.419Z,16.60
2019-06-08T04:41:47.191Z,16.48
2019-06-08T04:46:00.724Z,16.67
2019-06-08T04:48:09.728Z,17.17
2019-06-08T04:50:22.593Z,17.23
2019-06-08T04:54:29.956Z,17.02
2019-06-08T04:56:36.347Z,17.05
2019-06-08T04:58:45.992Z,17.07
2019-06-08T05:00:51.933Z,16.23
2019-06-08T05:02:58.398Z,16.47
2019-06-08T05:05:08.679Z,15.93
2019-06-08T05:07:15.088Z,15.88
2019-06-08T05:09:21.589Z,15.88
2019-06-08T05:11:28.013Z,15.60
2019-06-08T05:13:34.484Z,16.15
2019-06-08T05:15:41.418Z,16.20
2019-06-08T05:17:49.520Z,15.03
2019-06-08T05:22:01.759Z,16.52
2019-06-08T05:24:08.185Z,15.85
2019-06-08T05:26:14.813Z,15.40
2019-06-08T05:28:22.360Z,15.93
2019-06-08T05:30:28.843Z,16.87
2019-06-08T05:32:35.342Z,16.32
2019-06-08T05:34:41.768Z,15.68
2019-06-08T05:36:48.190Z,15.98
2019-06-08T05:38:55.057Z,14.30
2019-06-08T05:41:01.491Z,14.75
2019-06-08T05:43:07.900Z,14.23
2019-06-08T05:45:16.022Z,14.98
2019-06-08T05:49:28.060Z,14.47
2019-06-08T05:51:34.461Z,14.23
2019-06-08T05:53:41.653Z,14.38
2019-06-08T05:55:48.172Z,15.10
2019-06-08T05:57:54.573Z,13.98
2019-06-08T06:00:08.445Z,13.55
2019-06-08T06:02:09.263Z,13.53
2019-06-08T06:04:15.806Z,13.68
2019-06-08T06:06:23.172Z,13.88
2019-06-08T06:08:29.859Z,13.60
2019-06-08T06:10:36.348Z,13.83
2019-06-08T06:12:43.023Z,12.40
2019-06-08T06:14:49.549Z,12.88
2019-06-08T06:16:55.951Z,13.10
2019-06-08T06:19:02.444Z,12.43
2019-06-08T06:21:11.791Z,12.80
2019-06-08T06:23:18.639Z,12.93
2019-06-08T06:25:25.165Z,13.32
2019-06-08T06:27:31.617Z,12.40
2019-06-08T06:29:38.047Z,12.07
2019-06-08T06:31:45.781Z,11.95
2019-06-08T06:35:58.812Z,12.15
2019-06-08T06:38:05.468Z,12.35
2019-06-08T06:40:12.097Z,11.35
2019-06-08T06:42:18.610Z,11.28
2019-06-08T06:44:25.299Z,12.30
2019-06-08T06:46:31.809Z,12.58
2019-06-08T06:48:38.259Z,12.73
2019-06-08T06:50:44.667Z,13.90
2019-06-08T06:52:51.148Z,12.35
2019-06-08T06:54:57.616Z,13.08
2019-06-08T06:57:04.038Z,13.85
2019-06-08T06:59:11.412Z,12.60
2019-06-08T07:01:18.099Z,12.50
2019-06-08T07:03:25.813Z,13.05
2019-06-08T07:05:32.367Z,12.23
2019-06-08T07:07:38.892Z,13.03
2019-06-08T07:09:46.447Z,12.23
2019-06-08T07:11:56.294Z,12.23
2019-06-08T07:14:02.614Z,12.93
2019-06-08T07:16:18.738Z,12.82
2019-06-08T07:18:17.286Z,11.75
2019-06-08T07:20:23.714Z,11.55
2019-06-08T07:22:30.136Z,12.18
2019-06-08T07:24:36.637Z,10.82
2019-06-08T07:26:43.168Z,11.30
2019-06-08T07:28:51.828Z,9.95
2019-06-08T07:30:58.831Z,10.20
2019-06-08T07:35:11.231Z,9.93
2019-06-08T07:37:17.708Z,9.23
2019-06-08T07:39:25.827Z,9.80
2019-06-08T07:41:32.316Z,10.85
2019-06-08T07:43:38.830Z,10.75
2019-06-08T07:45:45.400Z,11.00
2019-06-08T07:47:52.062Z,10.68
2019-06-08T07:49:59.527Z,9.63
2019-06-08T07:52:10.089Z,10.23
2019-06-08T07:54:14.429Z,9.65
2019-06-08T07:56:21.037Z,9.55
2019-06-08T07:58:27.432Z,9.93
2019-06-08T08:00:33.945Z,8.88
2019-06-08T08:02:40.416Z,8.95
2019-06-08T08:04:48.319Z,9.25
2019-06-08T08:06:54.890Z,9.08
2019-06-08T08:09:01.284Z,9.78
2019-06-08T08:11:09.288Z,9.70
2019-06-08T08:13:15.771Z,9.95
2019-06-08T08:15:22.415Z,10.78
2019-06-08T08:17:29.038Z,10.73
2019-06-08T08:19:36.589Z,9.75
2019-06-08T08:21:44.403Z,9.73
2019-06-08T08:23:51.745Z,9.70
2019-06-08T08:26:01.742Z,9.23
2019-06-08T08:28:08.232Z,9.80
2019-06-08T08:30:17.305Z,9.45
2019-06-08T08:32:23.507Z,9.28
2019-06-08T08:34:29.930Z,10.10
2019-06-08T08:36:38.164Z,9.98
2019-06-08T08:38:44.639Z,9.40
2019-06-08T08:40:52.936Z,10.23
2019-06-08T08:43:02.957Z,10.30
2019-06-08T08:45:10.482Z,10.20
2019-06-08T08:47:18.701Z,10.00
2019-06-08T08:49:25.122Z,10.23
2019-06-08T08:51:31.592Z,10.20
2019-06-08T08:53:38.167Z,10.43
2019-06-08T08:55:47.940Z,10.23
2019-06-08T09:00:04.766Z,10.80
2019-06-08T09:02:11.475Z,11.15
2019-06-08T09:04:18.647Z,11.08
2019-06-08T09:06:27.819Z,10.48
2019-06-08T09:10:39.178Z,11.48
2019-06-08T09:12:48.375Z,10.58
2019-06-08T09:17:04.344Z,10.80
2019-06-08T09:19:11.057Z,10.25
2019-06-08T09:21:18.681Z,11.03
2019-06-08T09:23:28.064Z,11.63
2019-06-08T09:25:34.705Z,11.85
2019-06-08T09:27:42.088Z,10.55
2019-06-08T09:29:48.510Z,10.00
2019-06-08T09:31:55.997Z,10.28
2019-06-08T09:34:11.011Z,10.32
2019-06-08T09:36:13.125Z,10.53
2019-06-08T09:38:19.653Z,10.30
2019-06-08T09:40:31.849Z,11.10
2019-06-08T09:42:35.923Z,10.35
2019-06-08T09:44:43.759Z,11.00
2019-06-08T09:46:50.190Z,10.95
2019-06-08T09:49:03.665Z,10.85
2019-06-08T09:51:06.384Z,11.05
2019-06-08T09:55:20.384Z,10.82
2019-06-08T09:57:28.400Z,10.70
2019-06-08T09:59:34.975Z,10.58
2019-06-08T10:01:41.425Z,10.35
2019-06-08T10:03:54.180Z,10.58
2019-06-08T10:06:05.315Z,10.72
2019-06-08T10:08:09.610Z,10.55
2019-06-08T10:10:18.202Z,11.03
2019-06-08T10:12:24.858Z,10.43
2019-06-08T10:14:31.289Z,12.35
2019-06-08T10:16:38.276Z,11.38
2019-06-08T10:20:51.404Z,10.63
2019-06-08T10:23:01.152Z,10.58
2019-06-08T10:25:11.271Z,10.28
2019-06-08T10:27:19.931Z,10.88
2019-06-08T10:29:26.565Z,11.15
2019-06-08T10:31:39.774Z,10.50
2019-06-08T10:35:48.142Z,9.70
2019-06-08T10:37:55.742Z,11.50
2019-06-08T10:40:05.216Z,10.50
2019-06-08T10:42:11.599Z,10.55
2019-06-08T10:44:18.385Z,11.00
2019-06-08T10:46:24.971Z,9.98
2019-06-08T10:48:31.546Z,10.70
2019-06-08T10:50:37.951Z,10.15
2019-06-08T10:52:44.419Z,10.48
2019-06-08T10:54:50.924Z,11.00
2019-06-08T10:57:00.287Z,11.03
2019-06-08T11:01:14.353Z,11.93
2019-06-08T11:03:20.970Z,10.25
2019-06-08T11:05:28.076Z,10.72
2019-06-08T11:07:35.025Z,10.85
2019-06-08T11:09:41.501Z,10.63
2019-06-08T11:11:50.340Z,10.03
2019-06-08T11:13:58.389Z,10.28
2019-06-08T11:18:13.592Z,9.68
2019-06-08T11:20:20.443Z,10.53
2019-06-08T11:22:28.476Z,10.75
2019-06-08T11:24:35.033Z,10.55
2019-06-08T11:26:41.611Z,10.72
2019-06-08T11:28:51.107Z,11.45
2019-06-08T11:30:56.217Z,10.60
2019-06-08T11:33:04.100Z,10.48
2019-06-08T11:35:12.621Z,9.53
2019-06-08T11:37:21.130Z,9.73
2019-06-08T11:41:42.565Z,9.38
2019-06-08T11:43:44.992Z,9.93
2019-06-08T11:45:51.406Z,9.98
2019-06-08T11:47:58.482Z,9.65
2019-06-08T11:50:12.578Z,9.35
2019-06-08T11:52:18.326Z,9.73
2019-06-08T11:54:34.281Z,10.28
2019-06-08T11:56:32.967Z,9.03
2019-06-08T11:58:41.006Z,8.30
2019-06-08T12:01:03.416Z,8.90
2019-06-08T12:03:11.526Z,8.28
2019-06-08T12:05:18.163Z,8.43
2019-06-08T12:07:24.611Z,9.20
2019-06-08T12:09:31.009Z,9.00
2019-06-08T12:11:38.268Z,9.08
2019-06-08T12:13:46.907Z,9.68
2019-06-08T12:15:53.137Z,8.98
2019-06-08T12:17:59.558Z,9.40
2019-06-08T12:20:14.038Z,10.48
2019-06-08T12:22:17.973Z,9.60
2019-06-08T12:24:38.506Z,10.75
2019-06-08T12:26:32.759Z,10.58
2019-06-08T12:28:39.236Z,10.43
2019-06-08T12:30:47.696Z,9.48
2019-06-08T12:32:53.863Z,10.05
2019-06-08T12:35:00.338Z,9.93
2019-06-08T12:37:13.398Z,10.32
2019-06-08T12:39:19.052Z,10.05
2019-06-08T12:41:24.755Z,9.20
2019-06-08T12:43:31.229Z,9.88
2019-06-08T12:45:38.157Z,9.73
2019-06-08T12:47:45.017Z,9.88
2019-06-08T12:49:51.423Z,10.23
2019-06-08T12:52:00.386Z,9.63
2019-06-08T12:54:09.960Z,9.85
2019-06-08T12:56:23.313Z,9.93
2019-06-08T12:58:24.874Z,9.95
2019-06-08T13:00:31.587Z,9.85
2019-06-08T13:02:39.132Z,9.50
2019-06-08T13:04:50.422Z,9.75
2019-06-08T13:06:58.426Z,10.03
2019-06-08T13:09:10.063Z,10.03
2019-06-08T13:11:16.502Z,9.00
2019-06-08T13:13:24.600Z,9.05
2019-06-08T13:15:31.295Z,9.08
2019-06-08T13:17:38.053Z,9.23
2019-06-08T13:19:45.043Z,8.98
2019-06-08T13:21:51.446Z,9.13
2019-06-08T13:23:58.224Z,8.40
2019-06-08T13:26:05.205Z,8.53
2019-06-08T13:28:15.155Z,8.73
2019-06-08T13:30:25.822Z,8.75
2019-06-08T13:32:29.822Z,8.88
2019-06-08T13:34:38.662Z,8.55
2019-06-08T13:36:44.629Z,8.60
2019-06-08T13:38:51.125Z,8.60
2019-06-08T13:40:58.945Z,8.05
2019-06-08T13:43:07.960Z,8.23
2019-06-08T13:45:15.595Z,7.78
2019-06-08T13:47:23.108Z,7.95
2019-06-08T13:49:30.783Z,7.47
2019-06-08T13:51:38.275Z,8.43
2019-06-08T13:53:44.909Z,8.10
2019-06-08T13:55:56.291Z,8.43
2019-06-08T13:57:59.635Z,8.28
2019-06-08T14:00:09.000Z,8.23
2019-06-08T14:02:17.890Z,8.50
2019-06-08T14:04:23.824Z,8.25
2019-06-08T14:06:30.634Z,8.38
2019-06-08T14:08:38.599Z,8.35
2019-06-08T14:10:48.243Z,9.15
2019-06-08T14:12:58.657Z,9.10
2019-06-08T14:15:08.715Z,9.60
2019-06-08T14:17:19.779Z,9.23
2019-06-08T14:19:26.116Z,9.75
2019-06-08T14:23:41.462Z,8.90
2019-06-08T14:25:56.476Z,8.85
2019-06-08T14:27:57.587Z,9.23
2019-06-08T14:30:08.397Z,8.70
2019-06-08T14:32:14.992Z,8.48
2019-06-08T14:34:23.108Z,9.30
2019-06-08T14:36:30.473Z,8.55
2019-06-08T14:38:41.689Z,8.10
2019-06-08T14:40:47.497Z,8.18
2019-06-08T14:42:53.663Z,8.23
2019-06-08T14:45:00.139Z,7.95
2019-06-08T14:47:16.332Z,8.63
2019-06-08T14:49:26.798Z,8.23
2019-06-08T14:51:49.358Z,8.28
2019-06-08T14:53:58.139Z,8.05
2019-06-08T14:56:08.441Z,8.65
2019-06-08T14:58:12.279Z,9.10
2019-06-08T15:00:25.667Z,9.20
2019-06-08T15:02:32.279Z,8.38
2019-06-08T15:04:40.041Z,9.30
2019-06-08T15:06:48.784Z,9.58
2019-06-08T15:08:54.836Z,9.28
2019-06-08T15:11:01.315Z,9.08
2019-06-08T15:13:08.026Z,10.20
2019-06-08T15:15:14.924Z,10.53
2019-06-08T15:17:21.871Z,10.78
2019-06-08T15:19:30.377Z,10.32
2019-06-08T15:21:38.093Z,10.28
2019-06-08T15:23:44.803Z,10.45
2019-06-08T15:25:52.828Z,10.60
2019-06-08T15:28:01.334Z,10.08
2019-06-08T15:30:08.943Z,10.45
2019-06-08T15:32:17.692Z,11.55
2019-06-08T15:34:25.237Z,12.23
2019-06-08T15:36:32.606Z,11.50
2019-06-08T15:38:39.353Z,10.53
2019-06-08T15:40:47.753Z,10.23
2019-06-08T15:42:53.948Z,9.58
2019-06-08T15:45:03.048Z,10.32
2019-06-08T15:47:09.541Z,11.00
2019-06-08T15:49:15.957Z,11.18
2019-06-08T15:51:22.386Z,11.05
2019-06-08T15:53:29.665Z,9.95
2019-06-08T15:55:38.190Z,10.50
2019-06-08T15:57:46.098Z,10.25
2019-06-08T15:59:52.517Z,11.53
2019-06-08T16:01:58.920Z,13.18
2019-06-08T16:04:05.536Z,10.88
2019-06-08T16:06:11.973Z,9.45
2019-06-08T16:08:18.367Z,10.98
2019-06-08T16:10:26.177Z,10.70
2019-06-08T16:12:33.251Z,10.05
2019-06-08T16:14:41.495Z,9.55
2019-06-08T16:16:48.202Z,11.03
2019-06-08T16:18:54.691Z,9.93
2019-06-08T16:21:01.152Z,9.70
2019-06-08T16:23:07.646Z,10.05
2019-06-08T16:25:14.377Z,10.08
2019-06-08T16:27:20.828Z,10.95
2019-06-08T16:29:27.245Z,12.28
2019-06-08T16:31:34.979Z,11.12
2019-06-08T16:33:44.185Z,10.38
2019-06-08T16:35:50.292Z,10.98
2019-06-08T16:37:56.694Z,11.22
2019-06-08T16:40:03.885Z,10.95
2019-06-08T16:42:10.371Z,11.35
2019-06-08T16:44:16.905Z,12.13
2019-06-08T16:46:23.407Z,11.85
2019-06-08T16:48:30.084Z,14.90
2019-06-08T16:50:36.530Z,11.40
2019-06-08T16:52:43.078Z,12.05
2019-06-08T16:54:50.682Z,12.35
2019-06-08T16:57:09.543Z,13.98
2019-06-08T16:59:05.391Z,15.00
2019-06-08T17:01:11.872Z,11.83
2019-06-08T17:03:18.487Z,12.45
2019-06-08T17:05:25.016Z,16.75
2019-06-08T17:07:32.180Z,12.55
2019-06-08T17:09:40.209Z,13.00
2019-06-08T17:11:46.686Z,13.13
2019-06-08T17:13:53.165Z,15.90
2019-06-08T17:15:59.608Z,23.30
2019-06-08T17:18:06.092Z,14.33
2019-06-08T17:20:13.312Z,13.88
2019-06-08T17:22:19.797Z,14.13
2019-06-08T17:24:26.251Z,14.73
2019-06-08T17:26:32.695Z,13.80
2019-06-08T17:28:39.170Z,16.00
2019-06-08T17:30:45.658Z,13.60
2019-06-08T17:32:52.061Z,14.23
2019-06-08T17:34:58.522Z,16.40
2019-06-08T17:37:05.194Z,15.72
2019-06-08T17:39:11.740Z,16.55
2019-06-08T17:41:18.364Z,14.10
2019-06-08T17:43:24.914Z,15.25
2019-06-08T17:45:32.354Z,15.70
2019-06-08T17:47:38.895Z,15.05
2019-06-08T17:49:45.405Z,15.98
2019-06-08T17:51:51.851Z,13.32
2019-06-08T17:53:58.849Z,14.43
2019-06-08T17:56:05.336Z,15.32
2019-06-08T17:58:11.885Z,14.80
2019-06-08T18:00:20.342Z,14.53
2019-06-08T18:02:29.079Z,14.87
2019-06-08T18:04:38.400Z,15.68
2019-06-08T18:06:47.386Z,18.27
2019-06-08T18:08:53.953Z,17.30
2019-06-08T18:11:00.440Z,15.32
2019-06-08T18:13:07.416Z,15.53
2019-06-08T18:15:17.469Z,15.38
2019-06-08T18:17:24.267Z,16.40
2019-06-08T18:19:34.165Z,15.15
2019-06-08T18:21:41.990Z,15.98
2019-06-08T18:23:48.809Z,18.40
2019-06-08T18:25:55.273Z,15.18
2019-06-08T18:28:09.229Z,16.97
2019-06-08T18:30:13.124Z,16.95
2019-06-08T18:32:20.316Z,17.00
2019-06-08T18:34:28.553Z,16.97
2019-06-08T18:36:38.055Z,15.48
2019-06-08T18:38:44.295Z,16.23
2019-06-08T18:40:51.272Z,17.62
2019-06-08T18:42:58.648Z,16.10
2019-06-08T18:45:09.091Z,14.73
2019-06-08T18:47:17.806Z,15.15
2019-06-08T18:49:28.820Z,15.70
2019-06-08T18:51:35.141Z,14.78
2019-06-08T18:54:01.507Z,15.38
2019-06-08T18:55:52.273Z,14.00
2019-06-08T18:57:58.696Z,14.13
2019-06-08T19:00:09.156Z,13.38
2019-06-08T19:02:17.955Z,12.73
2019-06-08T19:04:30.036Z,12.80
2019-06-08T19:06:34.419Z,13.20
2019-06-08T19:08:43.486Z,13.83
2019-06-08T19:10:51.335Z,11.83
2019-06-08T19:13:00.009Z,12.47
2019-06-08T19:15:11.356Z,13.20
2019-06-08T19:17:17.456Z,12.53
2019-06-08T19:19:24.108Z,12.50
2019-06-08T19:21:30.702Z,12.40
2019-06-08T19:23:40.479Z,13.00
2019-06-08T19:25:48.357Z,13.30
2019-06-08T19:27:54.791Z,13.83
2019-06-08T19:30:01.210Z,12.95
2019-06-08T19:32:07.688Z,12.18
2019-06-08T19:34:14.129Z,12.55
2019-06-08T19:36:20.600Z,12.60
2019-06-08T19:38:27.902Z,13.00
2019-06-08T19:40:34.918Z,14.17
2019-06-08T19:42:51.063Z,13.90
2019-06-08T19:45:01.154Z,13.88
2019-06-08T19:47:01.534Z,13.80
2019-06-08T19:49:09.002Z,13.75
2019-06-08T19:51:17.098Z,13.28
2019-06-08T19:53:23.735Z,14.38
2019-06-08T19:55:30.165Z,13.15
2019-06-08T19:57:39.226Z,13.62
2019-06-08T19:59:45.868Z,13.88
2019-06-08T20:01:56.399Z,13.62
2019-06-08T20:04:01.689Z,13.32
2019-06-08T20:06:08.147Z,13.88
2019-06-08T20:08:14.577Z,12.13
2019-06-08T20:10:21.000Z,12.18
2019-06-08T20:12:28.124Z,12.00
2019-06-08T20:14:37.274Z,11.70
2019-06-08T20:16:43.009Z,10.40
2019-06-08T20:18:51.253Z,11.40
2019-06-08T20:20:58.612Z,11.80
2019-06-08T20:23:09.563Z,11.18
2019-06-08T20:25:17.743Z,12.40
2019-06-08T20:32:42.772Z,12.95
2019-06-08T20:35:09.330Z,11.35
2019-06-08T20:37:17.522Z,11.33
2019-06-08T20:39:23.936Z,10.58
2019-06-08T20:41:30.371Z,10.18
2019-06-08T20:43:38.134Z,10.23
2019-06-08T20:45:46.655Z,10.50
2019-06-08T20:47:53.907Z,11.18
2019-06-08T20:50:01.769Z,10.45
2019-06-08T20:52:09.858Z,10.45
2019-06-08T20:54:17.240Z,9.68
2019-06-08T20:56:24.653Z,9.73
2019-06-08T20:58:32.645Z,11.10
2019-06-08T21:00:39.079Z,10.13
2019-06-08T21:02:46.451Z,11.03
2019-06-08T21:04:55.800Z,10.18
2019-06-08T21:07:05.261Z,9.18
2019-06-08T21:09:11.745Z,9.43
2019-06-08T21:11:19.367Z,9.60
2019-06-08T21:13:27.876Z,9.13
2019-06-08T21:15:34.387Z,9.23
2019-06-08T21:17:40.789Z,8.58
2019-06-08T21:19:47.208Z,10.03
2019-06-08T21:21:55.045Z,9.75
2019-06-08T21:24:01.865Z,10.10
2019-06-08T21:26:08.799Z,8.75
2019-06-08T21:28:17.150Z,9.08
2019-06-08T21:30:24.633Z,9.15
2019-06-08T21:32:31.434Z,9.18
2019-06-08T21:34:38.092Z,8.48
2019-06-08T21:36:44.578Z,8.95
2019-06-08T21:38:53.937Z,9.10
2019-06-08T21:41:02.521Z,8.40
2019-06-08T21:43:08.080Z,8.13
2019-06-08T21:45:18.907Z,6.78
2019-06-08T21:47:27.201Z,6.08
2019-06-08T21:49:34.970Z,6.67
2019-06-08T21:51:42.495Z,6.15
2019-06-08T21:53:50.080Z,5.15
2019-06-08T21:55:58.327Z,4.83
2019-06-08T21:58:05.098Z,4.60
2019-06-08T22:00:29.389Z,4.60
2019-06-08T22:02:23.690Z,4.70
2019-06-08T22:04:32.956Z,4.30
2019-06-08T22:06:40.568Z,4.75
2019-06-08T22:08:48.129Z,3.85
2019-06-08T22:10:54.918Z,4.22
2019-06-08T22:13:02.917Z,3.70
2019-06-08T22:15:11.305Z,3.90
2019-06-08T22:17:18.963Z,4.12
2019-06-08T22:19:27.415Z,4.50
2019-06-08T22:21:33.552Z,4.65
2019-06-08T22:23:40.133Z,4.62
2019-06-08T22:25:47.730Z,4.37
2019-06-08T22:27:55.967Z,5.30
2019-06-08T22:30:09.771Z,4.35
2019-06-08T22:32:12.270Z,4.58
2019-06-08T22:34:18.832Z,4.55
2019-06-08T22:36:27.470Z,4.45
2019-06-08T22:38:37.246Z,4.85
2019-06-08T22:40:41.730Z,4.45
2019-06-08T22:42:48.906Z,4.72
2019-06-08T22:44:57.710Z,4.67
2019-06-08T22:47:04.806Z,4.58
2019-06-08T22:49:11.346Z,4.60
2019-06-08T22:51:18.752Z,4.75
2019-06-08T22:53:27.610Z,4.78
2019-06-08T22:55:33.376Z,4.37
2019-06-08T22:57:39.787Z,4.42
2019-06-08T22:59:47.714Z,3.95
2019-06-08T23:01:55.724Z,4.12
2019-06-08T23:04:04.320Z,4.55
2019-06-08T23:06:10.721Z,4.50
2019-06-08T23:08:18.636Z,4.50
2019-06-08T23:10:25.044Z,4.43
2019-06-08T23:12:31.465Z,4.37
2019-06-08T23:14:37.858Z,4.45
2019-06-08T23:16:44.409Z,4.25
2019-06-08T23:18:50.836Z,4.33
2019-06-08T23:21:01.169Z,4.40
2019-06-08T23:23:08.565Z,4.00
2019-06-08T23:25:13.774Z,4.10
2019-06-08T23:27:20.179Z,4.35
2019-06-08T23:29:27.340Z,4.20
2019-06-08T23:31:33.893Z,4.53
2019-06-08T23:33:41.341Z,4.30
2019-06-08T23:36:21.688Z,4.28
2019-06-08T23:37:56.844Z,4.35
2019-06-08T23:40:03.923Z,4.83
2019-06-08T23:42:10.383Z,4.70
2019-06-08T23:44:17.630Z,4.92
2019-06-08T23:46:24.359Z,5.35
2019-06-08T23:48:30.783Z,5.42
2019-06-08T23:50:38.233Z,4.67
2019-06-08T23:52:44.718Z,5.08
2019-06-08T23:54:52.403Z,5.30
2019-06-08T23:57:00.100Z,5.03
2019-06-08T23:59:09.920Z,4.40
